createdAt,value
2019-05-07T00:04:26.682Z,4.00
2019-05-07T00:09:28.732Z,4.27
2019-05-07T00:14:32.002Z,4.70
2019-05-07T00:19:35.156Z,4.20
2019-05-07T00:24:37.252Z,4.57
2019-05-07T00:29:39.212Z,4.50
2019-05-07T00:34:46.030Z,4.87
2019-05-07T00:40:05.752Z,4.87
2019-05-07T00:45:20.324Z,4.90
2019-05-07T00:50:24.436Z,5.13
2019-05-07T00:55:26.376Z,5.23
2019-05-07T01:00:28.993Z,5.93
2019-05-07T01:05:32.606Z,5.90
2019-05-07T01:10:34.636Z,6.07
2019-05-07T01:15:36.897Z,5.70
2019-05-07T01:20:39.156Z,5.83
2019-05-07T01:25:43.107Z,5.70
2019-05-07T01:30:45.773Z,5.77
2019-05-07T01:36:22.717Z,6.07
2019-05-07T01:41:24.697Z,5.97
2019-05-07T01:46:26.865Z,6.40
2019-05-07T01:51:29.335Z,6.13
2019-05-07T01:56:33.130Z,6.13
2019-05-07T02:01:35.927Z,6.33
2019-05-07T02:07:02.641Z,7.03
2019-05-07T02:12:23.873Z,6.37
2019-05-07T02:17:26.658Z,6.77
2019-05-07T02:22:28.996Z,6.77
2019-05-07T02:27:32.821Z,6.40
2019-05-07T02:32:35.465Z,6.33
2019-05-07T02:37:55.489Z,6.83
2019-05-07T02:42:53.936Z,6.07
2019-05-07T02:47:56.370Z,6.10
2019-05-07T02:53:04.486Z,5.90
2019-05-07T02:58:06.486Z,6.37
2019-05-07T03:03:08.845Z,6.47
2019-05-07T03:08:13.489Z,5.93
2019-05-07T03:13:16.030Z,6.53
2019-05-07T03:18:19.139Z,6.73
2019-05-07T03:23:25.814Z,6.53
2019-05-07T03:28:28.554Z,6.80
2019-05-07T03:33:48.166Z,7.03
2019-05-07T03:38:53.784Z,7.30
2019-05-07T03:43:58.004Z,7.53
2019-05-07T03:49:03.840Z,8.03
2019-05-07T03:54:04.614Z,7.73
2019-05-07T03:59:06.538Z,8.77
2019-05-07T04:04:09.157Z,8.00
2019-05-07T04:09:13.342Z,8.07
2019-05-07T04:14:15.805Z,9.23
2019-05-07T04:19:18.056Z,8.73
2019-05-07T04:24:29.461Z,9.37
2019-05-07T04:29:35.110Z,9.90
2019-05-07T04:34:53.218Z,9.27
2019-05-07T04:39:55.399Z,9.03
2019-05-07T04:44:57.636Z,9.20
2019-05-07T04:50:03.489Z,9.17
2019-05-07T04:55:05.440Z,9.00
2019-05-07T05:00:09.763Z,9.10
2019-05-07T05:05:13.460Z,8.37
2019-05-07T05:10:16.272Z,9.13
2019-05-07T05:15:19.136Z,8.30
2019-05-07T05:20:27.900Z,8.13
2019-05-07T05:25:38.221Z,8.37
2019-05-07T05:30:43.412Z,7.80
2019-05-07T05:35:45.348Z,8.20
2019-05-07T05:40:47.496Z,8.27
2019-05-07T05:45:50.343Z,7.50
2019-05-07T05:50:59.127Z,7.70
2019-05-07T05:56:04.863Z,7.70
2019-05-07T06:01:23.678Z,7.93
2019-05-07T06:06:45.928Z,8.00
2019-05-07T06:12:12.631Z,8.33
2019-05-07T06:17:43.247Z,7.37
2019-05-07T06:23:09.021Z,6.83
2019-05-07T06:28:12.667Z,6.47
2019-05-07T06:33:15.184Z,5.97
2019-05-07T06:38:18.597Z,6.13
2019-05-07T06:43:38.396Z,5.37
2019-05-07T06:48:43.642Z,5.30
2019-05-07T06:53:44.889Z,4.70
2019-05-07T06:58:52.823Z,6.10
2019-05-07T07:04:05.851Z,4.73
2019-05-07T07:09:22.983Z,3.20
2019-05-07T07:14:25.271Z,2.90
2019-05-07T07:19:27.887Z,2.83
2019-05-07T07:24:29.704Z,2.63
2019-05-07T07:29:33.848Z,3.60
2019-05-07T07:34:42.683Z,4.97
2019-05-07T07:39:44.756Z,2.53
2019-05-07T07:44:48.889Z,2.80
2019-05-07T07:49:52.675Z,3.27
2019-05-07T07:54:54.960Z,2.53
2019-05-07T08:00:03.492Z,3.20
2019-05-07T08:05:08.773Z,3.20
2019-05-07T08:10:12.857Z,2.80
2019-05-07T08:15:21.840Z,1.87
2019-05-07T08:20:22.428Z,2.30
2019-05-07T08:25:43.287Z,2.10
2019-05-07T08:30:52.663Z,1.97
2019-05-07T08:36:08.148Z,1.90
2019-05-07T08:41:11.979Z,2.23
2019-05-07T08:46:42.094Z,2.13
2019-05-07T08:51:47.519Z,2.10
2019-05-07T08:56:49.770Z,1.90
2019-05-07T09:01:52.452Z,1.73
2019-05-07T09:06:54.480Z,1.67
2019-05-07T09:11:56.921Z,1.63
2019-05-07T09:17:04.335Z,1.70
2019-05-07T09:22:06.933Z,1.80
2019-05-07T09:27:28.616Z,1.43
2019-05-07T09:32:59.539Z,1.50
2019-05-07T09:38:03.172Z,1.80
2019-05-07T09:43:05.949Z,1.97
2019-05-07T09:48:08.174Z,1.73
2019-05-07T09:53:10.208Z,1.63
2019-05-07T09:58:13.319Z,1.67
2019-05-07T10:03:15.457Z,2.50
2019-05-07T10:08:17.464Z,1.70
2019-05-07T10:13:39.240Z,2.30
2019-05-07T10:18:42.701Z,1.30
2019-05-07T10:23:46.170Z,1.73
2019-05-07T10:28:48.639Z,1.70
2019-05-07T10:33:52.402Z,1.80
2019-05-07T10:38:54.982Z,1.93
2019-05-07T10:43:57.965Z,1.90
2019-05-07T10:49:13.288Z,1.33
2019-05-07T10:54:15.561Z,1.60
2019-05-07T10:59:18.148Z,1.90
2019-05-07T11:04:21.527Z,1.70
2019-05-07T11:09:23.948Z,1.50
2019-05-07T11:14:25.944Z,1.97
2019-05-07T11:19:27.868Z,1.50
2019-05-07T11:24:29.802Z,1.50
2019-05-07T11:29:36.230Z,1.53
2019-05-07T11:34:39.574Z,1.87
2019-05-07T11:39:42.744Z,2.13
2019-05-07T11:44:44.740Z,3.23
2019-05-07T11:50:05.355Z,3.33
2019-05-07T11:55:16.884Z,2.00
2019-05-07T12:00:27.217Z,2.50
2019-05-07T12:05:29.448Z,2.53
2019-05-07T12:10:32.823Z,2.20
2019-05-07T12:15:35.127Z,2.40
2019-05-07T12:20:36.933Z,1.70
2019-05-07T12:25:39.847Z,1.50
2019-05-07T12:31:07.714Z,1.63
2019-05-07T12:36:12.591Z,2.50
2019-05-07T12:41:33.256Z,2.00
2019-05-07T12:46:35.761Z,1.93
2019-05-07T12:51:58.946Z,1.50
2019-05-07T12:57:02.506Z,1.90
2019-05-07T13:02:21.788Z,2.03
2019-05-07T13:07:33.000Z,2.00
2019-05-07T13:12:34.804Z,1.80
2019-05-07T13:17:36.777Z,1.60
2019-05-07T13:22:38.960Z,1.70
2019-05-07T13:27:42.935Z,1.77
2019-05-07T13:32:48.199Z,1.83
2019-05-07T13:38:08.376Z,2.13
2019-05-07T13:43:17.666Z,1.70
2019-05-07T13:48:22.513Z,1.80
2019-05-07T13:53:25.580Z,3.53
2019-05-07T13:58:28.877Z,2.30
2019-05-07T14:03:33.003Z,1.80
2019-05-07T14:08:38.109Z,2.00
2019-05-07T14:13:43.430Z,1.50
2019-05-07T14:18:45.298Z,1.60
2019-05-07T14:23:47.569Z,1.80
2019-05-07T14:28:49.417Z,1.37
2019-05-07T14:33:57.951Z,2.20
2019-05-07T14:39:02.341Z,1.70
2019-05-07T14:44:12.086Z,1.77
2019-05-07T14:49:14.616Z,1.50
2019-05-07T14:54:18.269Z,1.60
2019-05-07T14:59:21.205Z,1.50
2019-05-07T15:04:23.403Z,1.73
2019-05-07T15:09:26.612Z,1.70
2019-05-07T15:14:29.222Z,1.70
2019-05-07T15:19:32.082Z,1.97
2019-05-07T15:24:34.652Z,2.23
2019-05-07T15:29:36.677Z,1.83
2019-05-07T15:34:39.354Z,1.40
2019-05-07T15:39:42.170Z,1.80
2019-05-07T15:44:44.860Z,1.53
2019-05-07T15:49:46.880Z,1.60
2019-05-07T15:54:49.008Z,1.80
2019-05-07T16:00:04.118Z,2.07
2019-05-07T16:05:06.660Z,1.80
2019-05-07T16:10:09.276Z,1.83
2019-05-07T16:15:13.651Z,1.90
2019-05-07T16:20:15.411Z,1.70
2019-05-07T16:25:18.223Z,2.70
2019-05-07T16:30:22.784Z,2.03
2019-05-07T16:35:25.357Z,1.83
2019-05-07T16:40:27.660Z,1.70
2019-05-07T16:45:29.829Z,1.43
2019-05-07T16:50:32.904Z,1.77
2019-05-07T16:55:37.013Z,1.50
2019-05-07T17:00:42.420Z,1.70
2019-05-07T17:05:44.457Z,1.73
2019-05-07T17:10:46.978Z,1.57
2019-05-07T17:15:56.691Z,1.47
2019-05-07T17:21:01.877Z,1.27
2019-05-07T17:26:04.947Z,1.53
2019-05-07T17:31:07.390Z,1.30
2019-05-07T17:36:11.918Z,1.70
2019-05-07T17:41:21.216Z,1.40
2019-05-07T17:46:18.598Z,2.43
2019-05-07T17:51:42.067Z,2.33
2019-05-07T17:56:44.207Z,1.53
2019-05-07T18:02:03.747Z,1.77
2019-05-07T18:07:06.412Z,3.03
2019-05-07T18:12:08.260Z,2.67
2019-05-07T18:17:17.544Z,2.00
2019-05-07T18:22:19.554Z,2.10
2019-05-07T18:27:23.820Z,1.93
2019-05-07T18:32:32.410Z,1.90
2019-05-07T18:37:36.712Z,1.87
2019-05-07T18:42:39.022Z,1.80
2019-05-07T18:47:43.415Z,2.53
2019-05-07T18:52:45.705Z,1.87
2019-05-07T18:57:47.880Z,8.03
2019-05-07T19:02:52.192Z,2.70
2019-05-07T19:08:04.348Z,2.40
2019-05-07T19:12:58.732Z,2.33
2019-05-07T19:18:02.660Z,2.30
2019-05-07T19:23:04.562Z,3.90
2019-05-07T19:28:07.229Z,3.97
2019-05-07T19:33:09.433Z,4.53
2019-05-07T19:38:11.499Z,4.10
2019-05-07T19:43:17.482Z,3.60
2019-05-07T19:48:19.908Z,3.30
2019-05-07T19:53:23.731Z,3.50
2019-05-07T19:58:26.388Z,4.00
2019-05-07T20:03:29.242Z,3.73
2019-05-07T20:08:32.292Z,3.77
2019-05-07T20:13:35.008Z,3.50
2019-05-07T20:18:37.281Z,4.00
2019-05-07T20:23:39.380Z,3.80
2019-05-07T20:28:42.060Z,4.87
2019-05-07T20:33:44.228Z,5.43
2019-05-07T20:38:46.187Z,4.80
2019-05-07T20:43:48.425Z,5.10
2019-05-07T20:48:52.486Z,5.10
2019-05-07T20:54:10.244Z,5.20
2019-05-07T20:59:12.614Z,5.03
2019-05-07T21:04:14.776Z,5.27
2019-05-07T21:09:16.741Z,5.17
2019-05-07T21:14:18.680Z,5.80
2019-05-07T21:19:22.356Z,5.50
2019-05-07T21:24:25.166Z,4.80
2019-05-07T21:29:27.612Z,4.50
2019-05-07T21:34:31.719Z,11.30
2019-05-07T21:39:33.530Z,5.00
2019-05-07T21:44:36.245Z,6.57
2019-05-07T21:49:38.829Z,5.90
2019-05-07T21:54:48.142Z,5.10
2019-05-07T22:00:09.630Z,5.10
2019-05-07T22:05:14.662Z,4.37
2019-05-07T22:10:16.763Z,4.33
2019-05-07T22:15:18.713Z,4.80
2019-05-07T22:20:20.709Z,4.60
2019-05-07T22:25:22.939Z,4.63
2019-05-07T22:30:34.254Z,4.57
2019-05-07T22:35:38.941Z,4.50
2019-05-07T22:41:02.049Z,4.13
2019-05-07T22:46:04.113Z,4.53
2019-05-07T22:51:06.363Z,4.27
2019-05-07T22:56:08.256Z,4.27
2019-05-07T23:01:13.115Z,4.43
2019-05-07T23:06:15.285Z,4.33
2019-05-07T23:11:17.192Z,4.80
2019-05-07T23:16:19.981Z,5.03
2019-05-07T23:21:24.625Z,5.47
2019-05-07T23:26:27.567Z,5.03
2019-05-07T23:31:29.989Z,5.20
2019-05-07T23:36:32.374Z,5.03
2019-05-07T23:41:43.900Z,4.67
2019-05-07T23:46:46.009Z,5.57
2019-05-07T23:51:47.908Z,6.30
2019-05-07T23:57:02.858Z,6.53
